sensor_id;sensor_type;location;lat;lon;timestamp;P1;durP1;ratioP1;P2;durP2;ratioP2
78985;SDS011;68384;55.750;48.746;2023-05-29T00:00:36;13.07;;;10.32;;
78985;SDS011;68384;55.750;48.746;2023-05-29T00:01:39;16.63;;;10.90;;
78985;SDS011;68384;55.750;48.746;2023-05-29T00:02:43;15.98;;;10.80;;
78985;SDS011;68384;55.750;48.746;2023-05-29T00:03:47;13.43;;;9.88;;
78985;SDS011;68384;55.750;48.746;2023-05-29T00:04:51;16.23;;;10.73;;
78985;SDS011;68384;55.750;48.746;2023-05-29T00:05:55;17.02;;;11.10;;
78985;SDS011;68384;55.750;48.746;2023-05-29T00:06:58;15.25;;;10.15;;
78985;SDS011;68384;55.750;48.746;2023-05-29T00:08:02;15.75;;;10.60;;
78985;SDS011;68384;55.750;48.746;2023-05-29T00:09:05;16.15;;;10.85;;
78985;SDS011;68384;55.750;48.746;2023-05-29T00:10:10;14.65;;;10.93;;
78985;SDS011;68384;55.750;48.746;2023-05-29T00:11:15;12.07;;;9.57;;
78985;SDS011;68384;55.750;48.746;2023-05-29T00:12:19;17.27;;;10.70;;
78985;SDS011;68384;55.750;48.746;2023-05-29T00:13:22;17.08;;;12.07;;
78985;SDS011;68384;55.750;48.746;2023-05-29T00:14:26;19.88;;;10.85;;
78985;SDS011;68384;55.750;48.746;2023-05-29T00:15:29;17.65;;;10.95;;
78985;SDS011;68384;55.750;48.746;2023-05-29T00:16:33;15.32;;;11.23;;
78985;SDS011;68384;55.750;48.746;2023-05-29T00:17:36;14.98;;;10.52;;
78985;SDS011;68384;55.750;48.746;2023-05-29T00:18:41;17.13;;;11.27;;
78985;SDS011;68384;55.750;48.746;2023-05-29T00:19:47;14.15;;;11.02;;
78985;SDS011;68384;55.750;48.746;2023-05-29T00:20:51;15.65;;;11.10;;
78985;SDS011;68384;55.750;48.746;2023-05-29T00:21:55;17.75;;;10.30;;
78985;SDS011;68384;55.750;48.746;2023-05-29T00:22:59;17.13;;;10.98;;
78985;SDS011;68384;55.750;48.746;2023-05-29T00:24:01;17.60;;;11.05;;
78985;SDS011;68384;55.750;48.746;2023-05-29T00:25:06;17.10;;;11.25;;
78985;SDS011;68384;55.750;48.746;2023-05-29T00:26:10;13.52;;;10.95;;
78985;SDS011;68384;55.750;48.746;2023-05-29T00:27:15;17.70;;;10.93;;
78985;SDS011;68384;55.750;48.746;2023-05-29T00:28:18;17.15;;;11.25;;
78985;SDS011;68384;55.750;48.746;2023-05-29T00:29:22;19.17;;;10.23;;
78985;SDS011;68384;55.750;48.746;2023-05-29T00:30:25;15.38;;;10.80;;
78985;SDS011;68384;55.750;48.746;2023-05-29T00:31:29;17.35;;;11.05;;
78985;SDS011;68384;55.750;48.746;2023-05-29T00:32:33;16.77;;;10.35;;
78985;SDS011;68384;55.750;48.746;2023-05-29T00:33:37;15.00;;;10.93;;
78985;SDS011;68384;55.750;48.746;2023-05-29T00:34:40;14.23;;;9.63;;
78985;SDS011;68384;55.750;48.746;2023-05-29T00:35:44;19.75;;;11.48;;
78985;SDS011;68384;55.750;48.746;2023-05-29T00:36:48;16.58;;;10.60;;
78985;SDS011;68384;55.750;48.746;2023-05-29T00:37:52;17.02;;;10.98;;
78985;SDS011;68384;55.750;48.746;2023-05-29T00:38:55;22.80;;;11.50;;
78985;SDS011;68384;55.750;48.746;2023-05-29T00:39:59;15.90;;;11.43;;
78985;SDS011;68384;55.750;48.746;2023-05-29T00:41:03;16.38;;;11.80;;
78985;SDS011;68384;55.750;48.746;2023-05-29T00:42:07;15.55;;;10.05;;
78985;SDS011;68384;55.750;48.746;2023-05-29T00:43:11;15.68;;;11.40;;
78985;SDS011;68384;55.750;48.746;2023-05-29T00:44:15;19.90;;;10.82;;
78985;SDS011;68384;55.750;48.746;2023-05-29T00:45:18;18.17;;;11.68;;
78985;SDS011;68384;55.750;48.746;2023-05-29T00:46:22;17.05;;;10.70;;
78985;SDS011;68384;55.750;48.746;2023-05-29T00:47:25;15.55;;;11.30;;
78985;SDS011;68384;55.750;48.746;2023-05-29T00:48:29;18.35;;;10.65;;
78985;SDS011;68384;55.750;48.746;2023-05-29T00:49:32;18.95;;;11.27;;
78985;SDS011;68384;55.750;48.746;2023-05-29T00:50:39;17.75;;;10.20;;
78985;SDS011;68384;55.750;48.746;2023-05-29T00:52:47;14.70;;;9.30;;
78985;SDS011;68384;55.750;48.746;2023-05-29T00:53:50;14.43;;;9.85;;
78985;SDS011;68384;55.750;48.746;2023-05-29T00:54:55;16.92;;;9.65;;
78985;SDS011;68384;55.750;48.746;2023-05-29T00:55:59;13.95;;;9.65;;
78985;SDS011;68384;55.750;48.746;2023-05-29T00:57:03;14.73;;;9.15;;
78985;SDS011;68384;55.750;48.746;2023-05-29T00:58:07;12.73;;;9.10;;
78985;SDS011;68384;55.750;48.746;2023-05-29T00:59:13;12.00;;;9.13;;
78985;SDS011;68384;55.750;48.746;2023-05-29T01:00:17;14.63;;;9.38;;
78985;SDS011;68384;55.750;48.746;2023-05-29T01:01:22;11.88;;;8.70;;
78985;SDS011;68384;55.750;48.746;2023-05-29T01:02:25;12.70;;;7.93;;
78985;SDS011;68384;55.750;48.746;2023-05-29T01:03:32;12.38;;;8.48;;
78985;SDS011;68384;55.750;48.746;2023-05-29T01:05:40;12.75;;;8.35;;
78985;SDS011;68384;55.750;48.746;2023-05-29T01:06:43;16.92;;;8.40;;
78985;SDS011;68384;55.750;48.746;2023-05-29T01:07:47;12.63;;;8.43;;
78985;SDS011;68384;55.750;48.746;2023-05-29T01:09:54;15.18;;;9.02;;
78985;SDS011;68384;55.750;48.746;2023-05-29T01:11:00;11.27;;;7.90;;
78985;SDS011;68384;55.750;48.746;2023-05-29T01:12:13;11.48;;;7.88;;
78985;SDS011;68384;55.750;48.746;2023-05-29T01:13:23;12.90;;;8.38;;
78985;SDS011;68384;55.750;48.746;2023-05-29T01:14:36;13.52;;;8.63;;
78985;SDS011;68384;55.750;48.746;2023-05-29T01:15:49;13.18;;;7.97;;
78985;SDS011;68384;55.750;48.746;2023-05-29T01:16:59;11.55;;;8.98;;
78985;SDS011;68384;55.750;48.746;2023-05-29T01:18:18;15.95;;;8.90;;
78985;SDS011;68384;55.750;48.746;2023-05-29T01:19:35;12.82;;;8.50;;
78985;SDS011;68384;55.750;48.746;2023-05-29T01:20:59;15.55;;;9.10;;
78985;SDS011;68384;55.750;48.746;2023-05-29T01:22:09;12.05;;;7.55;;
78985;SDS011;68384;55.750;48.746;2023-05-29T01:23:23;14.15;;;8.38;;
78985;SDS011;68384;55.750;48.746;2023-05-29T01:24:45;12.73;;;7.05;;
78985;SDS011;68384;55.750;48.746;2023-05-29T01:26:03;15.18;;;7.40;;
78985;SDS011;68384;55.750;48.746;2023-05-29T01:27:17;12.25;;;7.20;;
78985;SDS011;68384;55.750;48.746;2023-05-29T01:28:21;13.45;;;8.15;;
78985;SDS011;68384;55.750;48.746;2023-05-29T01:29:31;11.85;;;7.50;;
78985;SDS011;68384;55.750;48.746;2023-05-29T01:30:38;14.95;;;7.65;;
78985;SDS011;68384;55.750;48.746;2023-05-29T01:31:42;14.95;;;7.95;;
78985;SDS011;68384;55.750;48.746;2023-05-29T01:32:47;14.70;;;7.63;;
78985;SDS011;68384;55.750;48.746;2023-05-29T01:33:51;13.35;;;8.02;;
78985;SDS011;68384;55.750;48.746;2023-05-29T01:34:56;10.35;;;7.57;;
78985;SDS011;68384;55.750;48.746;2023-05-29T01:36:00;12.43;;;7.80;;
78985;SDS011;68384;55.750;48.746;2023-05-29T01:37:03;12.98;;;8.05;;
78985;SDS011;68384;55.750;48.746;2023-05-29T01:38:07;10.82;;;7.13;;
78985;SDS011;68384;55.750;48.746;2023-05-29T01:39:10;14.77;;;7.43;;
78985;SDS011;68384;55.750;48.746;2023-05-29T01:40:14;11.52;;;7.13;;
78985;SDS011;68384;55.750;48.746;2023-05-29T01:41:17;10.82;;;7.78;;
78985;SDS011;68384;55.750;48.746;2023-05-29T01:42:23;16.50;;;7.47;;
78985;SDS011;68384;55.750;48.746;2023-05-29T01:43:26;10.65;;;6.88;;
78985;SDS011;68384;55.750;48.746;2023-05-29T01:44:30;9.43;;;7.28;;
78985;SDS011;68384;55.750;48.746;2023-05-29T01:45:33;12.32;;;7.03;;
78985;SDS011;68384;55.750;48.746;2023-05-29T01:46:38;12.23;;;7.38;;
78985;SDS011;68384;55.750;48.746;2023-05-29T01:47:42;11.30;;;6.55;;
78985;SDS011;68384;55.750;48.746;2023-05-29T01:48:46;12.00;;;6.50;;
78985;SDS011;68384;55.750;48.746;2023-05-29T01:49:49;8.30;;;6.28;;
78985;SDS011;68384;55.750;48.746;2023-05-29T01:50:55;8.80;;;5.97;;
78985;SDS011;68384;55.750;48.746;2023-05-29T01:51:59;8.43;;;6.55;;
78985;SDS011;68384;55.750;48.746;2023-05-29T01:53:03;9.10;;;6.72;;
78985;SDS011;68384;55.750;48.746;2023-05-29T01:54:06;9.75;;;6.72;;
78985;SDS011;68384;55.750;48.746;2023-05-29T01:55:10;9.63;;;6.80;;
78985;SDS011;68384;55.750;48.746;2023-05-29T01:56:13;9.65;;;6.63;;
78985;SDS011;68384;55.750;48.746;2023-05-29T01:57:17;9.98;;;6.80;;
78985;SDS011;68384;55.750;48.746;2023-05-29T01:58:23;11.68;;;7.40;;
78985;SDS011;68384;55.750;48.746;2023-05-29T01:59:29;10.38;;;6.75;;
78985;SDS011;68384;55.750;48.746;2023-05-29T02:00:32;11.10;;;6.88;;
78985;SDS011;68384;55.750;48.746;2023-05-29T02:01:38;11.18;;;6.70;;
78985;SDS011;68384;55.750;48.746;2023-05-29T02:02:41;9.27;;;7.20;;
78985;SDS011;68384;55.750;48.746;2023-05-29T02:03:45;10.02;;;7.03;;
78985;SDS011;68384;55.750;48.746;2023-05-29T02:04:48;10.93;;;7.00;;
78985;SDS011;68384;55.750;48.746;2023-05-29T02:05:53;9.75;;;7.25;;
78985;SDS011;68384;55.750;48.746;2023-05-29T02:06:57;9.55;;;6.80;;
78985;SDS011;68384;55.750;48.746;2023-05-29T02:08:01;10.88;;;7.18;;
78985;SDS011;68384;55.750;48.746;2023-05-29T02:09:04;9.43;;;7.05;;
78985;SDS011;68384;55.750;48.746;2023-05-29T02:10:09;11.75;;;8.07;;
78985;SDS011;68384;55.750;48.746;2023-05-29T02:11:12;9.40;;;6.95;;
78985;SDS011;68384;55.750;48.746;2023-05-29T02:12:16;9.20;;;6.43;;
78985;SDS011;68384;55.750;48.746;2023-05-29T02:13:19;10.30;;;6.97;;
78985;SDS011;68384;55.750;48.746;2023-05-29T02:14:25;9.82;;;6.82;;
78985;SDS011;68384;55.750;48.746;2023-05-29T02:15:29;9.20;;;6.80;;
78985;SDS011;68384;55.750;48.746;2023-05-29T02:16:33;9.15;;;6.95;;
78985;SDS011;68384;55.750;48.746;2023-05-29T02:17:36;11.00;;;7.40;;
78985;SDS011;68384;55.750;48.746;2023-05-29T02:18:40;12.35;;;8.25;;
78985;SDS011;68384;55.750;48.746;2023-05-29T02:19:43;10.48;;;7.00;;
78985;SDS011;68384;55.750;48.746;2023-05-29T02:20:47;8.25;;;6.97;;
78985;SDS011;68384;55.750;48.746;2023-05-29T02:21:56;9.27;;;6.95;;
78985;SDS011;68384;55.750;48.746;2023-05-29T02:23:00;11.88;;;7.18;;
78985;SDS011;68384;55.750;48.746;2023-05-29T02:24:03;8.82;;;6.65;;
78985;SDS011;68384;55.750;48.746;2023-05-29T02:25:08;9.90;;;7.28;;
78985;SDS011;68384;55.750;48.746;2023-05-29T02:26:11;10.80;;;7.90;;
78985;SDS011;68384;55.750;48.746;2023-05-29T02:27:17;9.85;;;7.25;;
78985;SDS011;68384;55.750;48.746;2023-05-29T02:28:21;9.38;;;7.10;;
78985;SDS011;68384;55.750;48.746;2023-05-29T02:29:26;7.70;;;6.22;;
78985;SDS011;68384;55.750;48.746;2023-05-29T02:30:29;8.98;;;6.63;;
78985;SDS011;68384;55.750;48.746;2023-05-29T02:31:33;8.00;;;6.28;;
78985;SDS011;68384;55.750;48.746;2023-05-29T02:32:39;9.68;;;6.93;;
78985;SDS011;68384;55.750;48.746;2023-05-29T02:33:43;9.43;;;6.75;;
78985;SDS011;68384;55.750;48.746;2023-05-29T02:34:46;9.65;;;6.68;;
78985;SDS011;68384;55.750;48.746;2023-05-29T02:35:50;9.00;;;6.85;;
78985;SDS011;68384;55.750;48.746;2023-05-29T02:36:52;9.90;;;6.65;;
78985;SDS011;68384;55.750;48.746;2023-05-29T02:37:58;7.78;;;6.30;;
78985;SDS011;68384;55.750;48.746;2023-05-29T02:39:01;7.95;;;6.38;;
78985;SDS011;68384;55.750;48.746;2023-05-29T02:40:06;9.20;;;6.88;;
78985;SDS011;68384;55.750;48.746;2023-05-29T02:41:12;10.52;;;6.75;;
78985;SDS011;68384;55.750;48.746;2023-05-29T02:42:16;9.80;;;7.40;;
78985;SDS011;68384;55.750;48.746;2023-05-29T02:43:21;10.75;;;7.05;;
78985;SDS011;68384;55.750;48.746;2023-05-29T02:44:27;7.93;;;5.97;;
78985;SDS011;68384;55.750;48.746;2023-05-29T02:45:29;8.63;;;6.75;;
78985;SDS011;68384;55.750;48.746;2023-05-29T02:46:34;10.35;;;7.22;;
78985;SDS011;68384;55.750;48.746;2023-05-29T02:47:37;9.30;;;7.00;;
78985;SDS011;68384;55.750;48.746;2023-05-29T02:48:41;9.38;;;6.57;;
78985;SDS011;68384;55.750;48.746;2023-05-29T02:49:46;8.65;;;6.30;;
78985;SDS011;68384;55.750;48.746;2023-05-29T02:50:51;13.52;;;6.82;;
78985;SDS011;68384;55.750;48.746;2023-05-29T02:51:54;7.88;;;6.13;;
78985;SDS011;68384;55.750;48.746;2023-05-29T02:52:58;8.02;;;6.13;;
78985;SDS011;68384;55.750;48.746;2023-05-29T02:54:01;9.48;;;6.97;;
78985;SDS011;68384;55.750;48.746;2023-05-29T02:55:06;10.75;;;6.97;;
78985;SDS011;68384;55.750;48.746;2023-05-29T02:56:09;10.05;;;6.95;;
78985;SDS011;68384;55.750;48.746;2023-05-29T02:57:14;8.70;;;6.72;;
78985;SDS011;68384;55.750;48.746;2023-05-29T02:58:17;9.70;;;6.35;;
78985;SDS011;68384;55.750;48.746;2023-05-29T02:59:22;8.85;;;6.15;;
78985;SDS011;68384;55.750;48.746;2023-05-29T03:00:27;8.25;;;6.18;;
78985;SDS011;68384;55.750;48.746;2023-05-29T03:01:32;10.82;;;5.72;;
78985;SDS011;68384;55.750;48.746;2023-05-29T03:02:36;11.98;;;6.22;;
78985;SDS011;68384;55.750;48.746;2023-05-29T03:03:40;9.20;;;6.43;;
78985;SDS011;68384;55.750;48.746;2023-05-29T03:04:43;8.07;;;6.38;;
78985;SDS011;68384;55.750;48.746;2023-05-29T03:05:47;7.45;;;5.60;;
78985;SDS011;68384;55.750;48.746;2023-05-29T03:06:50;7.90;;;6.05;;
78985;SDS011;68384;55.750;48.746;2023-05-29T03:07:55;9.63;;;6.05;;
78985;SDS011;68384;55.750;48.746;2023-05-29T03:08:58;8.88;;;6.10;;
78985;SDS011;68384;55.750;48.746;2023-05-29T03:10:02;10.13;;;6.40;;
78985;SDS011;68384;55.750;48.746;2023-05-29T03:11:06;7.63;;;5.85;;
78985;SDS011;68384;55.750;48.746;2023-05-29T03:12:11;7.65;;;6.28;;
78985;SDS011;68384;55.750;48.746;2023-05-29T03:13:14;13.25;;;6.93;;
78985;SDS011;68384;55.750;48.746;2023-05-29T03:14:26;10.05;;;6.32;;
78985;SDS011;68384;55.750;48.746;2023-05-29T03:15:31;9.93;;;6.38;;
78985;SDS011;68384;55.750;48.746;2023-05-29T03:16:34;9.55;;;6.38;;
78985;SDS011;68384;55.750;48.746;2023-05-29T03:18:46;12.77;;;6.05;;
78985;SDS011;68384;55.750;48.746;2023-05-29T03:19:53;7.38;;;6.13;;
78985;SDS011;68384;55.750;48.746;2023-05-29T03:20:56;8.43;;;5.85;;
78985;SDS011;68384;55.750;48.746;2023-05-29T03:22:00;8.13;;;5.68;;
78985;SDS011;68384;55.750;48.746;2023-05-29T03:23:06;10.57;;;5.90;;
78985;SDS011;68384;55.750;48.746;2023-05-29T03:24:10;7.60;;;6.38;;
78985;SDS011;68384;55.750;48.746;2023-05-29T03:25:15;8.13;;;6.00;;
78985;SDS011;68384;55.750;48.746;2023-05-29T03:26:20;8.07;;;5.93;;
78985;SDS011;68384;55.750;48.746;2023-05-29T03:27:25;7.40;;;5.93;;
78985;SDS011;68384;55.750;48.746;2023-05-29T03:28:36;10.88;;;6.35;;
78985;SDS011;68384;55.750;48.746;2023-05-29T03:29:42;8.40;;;6.30;;
78985;SDS011;68384;55.750;48.746;2023-05-29T03:30:47;7.03;;;5.78;;
78985;SDS011;68384;55.750;48.746;2023-05-29T03:31:53;8.02;;;6.68;;
78985;SDS011;68384;55.750;48.746;2023-05-29T03:33:02;8.45;;;5.38;;
78985;SDS011;68384;55.750;48.746;2023-05-29T03:34:33;9.82;;;5.55;;
78985;SDS011;68384;55.750;48.746;2023-05-29T03:35:39;7.07;;;6.00;;
78985;SDS011;68384;55.750;48.746;2023-05-29T03:36:42;8.30;;;5.78;;
78985;SDS011;68384;55.750;48.746;2023-05-29T03:37:48;8.70;;;5.30;;
78985;SDS011;68384;55.750;48.746;2023-05-29T03:38:51;7.57;;;5.03;;
78985;SDS011;68384;55.750;48.746;2023-05-29T03:39:55;8.25;;;5.70;;
78985;SDS011;68384;55.750;48.746;2023-05-29T03:40:58;7.43;;;5.05;;
78985;SDS011;68384;55.750;48.746;2023-05-29T03:42:02;7.65;;;5.18;;
78985;SDS011;68384;55.750;48.746;2023-05-29T03:43:05;7.30;;;5.25;;
78985;SDS011;68384;55.750;48.746;2023-05-29T03:44:09;6.00;;;4.97;;
78985;SDS011;68384;55.750;48.746;2023-05-29T03:45:12;7.22;;;5.63;;
78985;SDS011;68384;55.750;48.746;2023-05-29T03:46:18;9.15;;;5.55;;
78985;SDS011;68384;55.750;48.746;2023-05-29T03:47:21;7.20;;;5.20;;
78985;SDS011;68384;55.750;48.746;2023-05-29T03:48:27;5.72;;;4.78;;
78985;SDS011;68384;55.750;48.746;2023-05-29T03:49:29;7.10;;;5.45;;
78985;SDS011;68384;55.750;48.746;2023-05-29T03:50:33;7.43;;;5.85;;
78985;SDS011;68384;55.750;48.746;2023-05-29T03:51:37;5.93;;;4.93;;
78985;SDS011;68384;55.750;48.746;2023-05-29T03:52:41;7.00;;;5.50;;
78985;SDS011;68384;55.750;48.746;2023-05-29T03:53:43;9.25;;;5.10;;
78985;SDS011;68384;55.750;48.746;2023-05-29T03:54:47;8.88;;;5.50;;
78985;SDS011;68384;55.750;48.746;2023-05-29T03:55:51;7.35;;;5.40;;
78985;SDS011;68384;55.750;48.746;2023-05-29T03:56:56;7.82;;;5.60;;
78985;SDS011;68384;55.750;48.746;2023-05-29T03:58:01;8.80;;;5.07;;
78985;SDS011;68384;55.750;48.746;2023-05-29T03:59:05;7.25;;;4.75;;
78985;SDS011;68384;55.750;48.746;2023-05-29T04:00:08;7.88;;;4.72;;
78985;SDS011;68384;55.750;48.746;2023-05-29T04:01:14;9.32;;;4.82;;
78985;SDS011;68384;55.750;48.746;2023-05-29T04:02:18;6.45;;;4.80;;
78985;SDS011;68384;55.750;48.746;2023-05-29T04:03:22;7.38;;;4.55;;
78985;SDS011;68384;55.750;48.746;2023-05-29T04:04:25;6.15;;;4.22;;
78985;SDS011;68384;55.750;48.746;2023-05-29T04:05:29;5.00;;;4.00;;
78985;SDS011;68384;55.750;48.746;2023-05-29T04:06:32;5.75;;;4.40;;
78985;SDS011;68384;55.750;48.746;2023-05-29T04:07:41;8.73;;;4.65;;
78985;SDS011;68384;55.750;48.746;2023-05-29T04:08:44;6.88;;;5.00;;
78985;SDS011;68384;55.750;48.746;2023-05-29T04:09:47;7.70;;;4.35;;
78985;SDS011;68384;55.750;48.746;2023-05-29T04:10:50;6.13;;;4.40;;
78985;SDS011;68384;55.750;48.746;2023-05-29T04:11:56;7.57;;;4.82;;
78985;SDS011;68384;55.750;48.746;2023-05-29T04:13:01;6.57;;;4.60;;
78985;SDS011;68384;55.750;48.746;2023-05-29T04:14:04;5.22;;;4.57;;
78985;SDS011;68384;55.750;48.746;2023-05-29T04:15:08;6.60;;;4.82;;
78985;SDS011;68384;55.750;48.746;2023-05-29T04:16:11;6.55;;;5.07;;
78985;SDS011;68384;55.750;48.746;2023-05-29T04:17:35;7.53;;;5.03;;
78985;SDS011;68384;55.750;48.746;2023-05-29T04:20:19;7.78;;;5.80;;
78985;SDS011;68384;55.750;48.746;2023-05-29T04:21:41;7.82;;;5.90;;
78985;SDS011;68384;55.750;48.746;2023-05-29T04:23:05;11.63;;;6.30;;
78985;SDS011;68384;55.750;48.746;2023-05-29T04:24:08;12.07;;;5.75;;
78985;SDS011;68384;55.750;48.746;2023-05-29T04:25:12;9.77;;;5.93;;
78985;SDS011;68384;55.750;48.746;2023-05-29T04:26:16;7.25;;;5.82;;
78985;SDS011;68384;55.750;48.746;2023-05-29T04:27:20;7.93;;;6.10;;
78985;SDS011;68384;55.750;48.746;2023-05-29T04:28:23;7.25;;;6.00;;
78985;SDS011;68384;55.750;48.746;2023-05-29T04:29:30;7.60;;;5.82;;
78985;SDS011;68384;55.750;48.746;2023-05-29T04:30:34;8.85;;;6.03;;
78985;SDS011;68384;55.750;48.746;2023-05-29T04:31:38;8.23;;;6.40;;
78985;SDS011;68384;55.750;48.746;2023-05-29T04:33:47;8.30;;;5.82;;
78985;SDS011;68384;55.750;48.746;2023-05-29T04:34:51;10.52;;;6.75;;
78985;SDS011;68384;55.750;48.746;2023-05-29T04:35:55;10.05;;;6.90;;
78985;SDS011;68384;55.750;48.746;2023-05-29T04:36:58;9.80;;;6.93;;
78985;SDS011;68384;55.750;48.746;2023-05-29T04:38:02;11.52;;;6.95;;
78985;SDS011;68384;55.750;48.746;2023-05-29T04:39:07;12.25;;;7.28;;
78985;SDS011;68384;55.750;48.746;2023-05-29T04:40:12;8.93;;;5.80;;
78985;SDS011;68384;55.750;48.746;2023-05-29T04:41:21;8.95;;;6.60;;
78985;SDS011;68384;55.750;48.746;2023-05-29T04:42:35;10.50;;;6.30;;
78985;SDS011;68384;55.750;48.746;2023-05-29T04:43:38;8.98;;;6.18;;
78985;SDS011;68384;55.750;48.746;2023-05-29T04:44:43;8.93;;;6.07;;
78985;SDS011;68384;55.750;48.746;2023-05-29T04:45:46;8.18;;;6.78;;
78985;SDS011;68384;55.750;48.746;2023-05-29T04:46:51;12.07;;;6.90;;
78985;SDS011;68384;55.750;48.746;2023-05-29T04:47:56;9.05;;;5.78;;
78985;SDS011;68384;55.750;48.746;2023-05-29T04:49:01;8.80;;;5.78;;
78985;SDS011;68384;55.750;48.746;2023-05-29T04:50:05;10.32;;;6.10;;
78985;SDS011;68384;55.750;48.746;2023-05-29T04:51:09;8.43;;;5.95;;
78985;SDS011;68384;55.750;48.746;2023-05-29T04:52:13;9.35;;;6.47;;
78985;SDS011;68384;55.750;48.746;2023-05-29T04:53:17;8.88;;;6.32;;
78985;SDS011;68384;55.750;48.746;2023-05-29T04:54:21;9.38;;;7.25;;
78985;SDS011;68384;55.750;48.746;2023-05-29T04:55:28;8.60;;;6.35;;
78985;SDS011;68384;55.750;48.746;2023-05-29T04:56:31;8.60;;;5.95;;
78985;SDS011;68384;55.750;48.746;2023-05-29T04:57:36;7.90;;;6.30;;
78985;SDS011;68384;55.750;48.746;2023-05-29T04:58:43;8.70;;;5.65;;
78985;SDS011;68384;55.750;48.746;2023-05-29T04:59:47;9.98;;;5.70;;
78985;SDS011;68384;55.750;48.746;2023-05-29T05:00:50;11.15;;;6.10;;
78985;SDS011;68384;55.750;48.746;2023-05-29T05:01:55;9.75;;;6.60;;
78985;SDS011;68384;55.750;48.746;2023-05-29T05:02:59;10.32;;;6.13;;
78985;SDS011;68384;55.750;48.746;2023-05-29T05:04:03;10.73;;;6.40;;
78985;SDS011;68384;55.750;48.746;2023-05-29T05:05:08;12.05;;;6.97;;
78985;SDS011;68384;55.750;48.746;2023-05-29T05:06:11;8.60;;;6.63;;
78985;SDS011;68384;55.750;48.746;2023-05-29T05:07:15;13.23;;;6.55;;
78985;SDS011;68384;55.750;48.746;2023-05-29T05:08:18;10.18;;;5.97;;
78985;SDS011;68384;55.750;48.746;2023-05-29T05:09:22;8.45;;;5.85;;
78985;SDS011;68384;55.750;48.746;2023-05-29T05:10:26;8.70;;;6.32;;
78985;SDS011;68384;55.750;48.746;2023-05-29T05:11:31;7.32;;;5.95;;
78985;SDS011;68384;55.750;48.746;2023-05-29T05:12:34;17.52;;;7.88;;
78985;SDS011;68384;55.750;48.746;2023-05-29T05:13:39;10.23;;;6.95;;
78985;SDS011;68384;55.750;48.746;2023-05-29T05:14:42;11.55;;;6.38;;
78985;SDS011;68384;55.750;48.746;2023-05-29T05:15:46;7.93;;;6.30;;
78985;SDS011;68384;55.750;48.746;2023-05-29T05:16:49;8.15;;;7.03;;
78985;SDS011;68384;55.750;48.746;2023-05-29T05:17:53;8.40;;;6.65;;
78985;SDS011;68384;55.750;48.746;2023-05-29T05:18:58;10.75;;;7.38;;
78985;SDS011;68384;55.750;48.746;2023-05-29T05:20:04;7.80;;;6.28;;
78985;SDS011;68384;55.750;48.746;2023-05-29T05:21:08;7.22;;;6.25;;
78985;SDS011;68384;55.750;48.746;2023-05-29T05:22:13;11.60;;;6.20;;
78985;SDS011;68384;55.750;48.746;2023-05-29T05:23:16;10.93;;;6.22;;
78985;SDS011;68384;55.750;48.746;2023-05-29T05:24:20;8.05;;;6.07;;
78985;SDS011;68384;55.750;48.746;2023-05-29T05:25:22;7.85;;;6.63;;
78985;SDS011;68384;55.750;48.746;2023-05-29T05:26:26;8.80;;;6.00;;
78985;SDS011;68384;55.750;48.746;2023-05-29T05:27:29;8.20;;;6.15;;
78985;SDS011;68384;55.750;48.746;2023-05-29T05:28:34;6.28;;;5.53;;
78985;SDS011;68384;55.750;48.746;2023-05-29T05:29:38;6.45;;;5.60;;
78985;SDS011;68384;55.750;48.746;2023-05-29T05:30:42;7.00;;;5.10;;
78985;SDS011;68384;55.750;48.746;2023-05-29T05:31:45;8.52;;;5.45;;
78985;SDS011;68384;55.750;48.746;2023-05-29T05:32:50;8.32;;;5.68;;
78985;SDS011;68384;55.750;48.746;2023-05-29T05:33:52;8.40;;;6.25;;
78985;SDS011;68384;55.750;48.746;2023-05-29T05:34:59;8.68;;;6.00;;
78985;SDS011;68384;55.750;48.746;2023-05-29T05:36:02;9.10;;;5.78;;
78985;SDS011;68384;55.750;48.746;2023-05-29T05:37:07;6.63;;;4.85;;
78985;SDS011;68384;55.750;48.746;2023-05-29T05:38:12;8.20;;;5.55;;
78985;SDS011;68384;55.750;48.746;2023-05-29T05:39:16;6.55;;;4.82;;
78985;SDS011;68384;55.750;48.746;2023-05-29T05:40:21;8.55;;;6.43;;
78985;SDS011;68384;55.750;48.746;2023-05-29T05:41:32;8.07;;;5.65;;
78985;SDS011;68384;55.750;48.746;2023-05-29T05:42:36;7.25;;;5.43;;
78985;SDS011;68384;55.750;48.746;2023-05-29T05:43:44;6.40;;;4.60;;
78985;SDS011;68384;55.750;48.746;2023-05-29T05:45:09;6.45;;;4.78;;
78985;SDS011;68384;55.750;48.746;2023-05-29T05:46:14;6.45;;;5.53;;
78985;SDS011;68384;55.750;48.746;2023-05-29T05:47:17;8.13;;;4.95;;
78985;SDS011;68384;55.750;48.746;2023-05-29T05:48:21;6.97;;;5.13;;
78985;SDS011;68384;55.750;48.746;2023-05-29T05:49:24;7.80;;;5.15;;
78985;SDS011;68384;55.750;48.746;2023-05-29T05:50:29;8.23;;;4.93;;
78985;SDS011;68384;55.750;48.746;2023-05-29T05:51:32;6.25;;;4.97;;
78985;SDS011;68384;55.750;48.746;2023-05-29T05:52:37;10.18;;;5.10;;
78985;SDS011;68384;55.750;48.746;2023-05-29T05:53:40;10.88;;;5.43;;
78985;SDS011;68384;55.750;48.746;2023-05-29T05:54:44;8.30;;;5.60;;
78985;SDS011;68384;55.750;48.746;2023-05-29T05:55:48;8.38;;;5.28;;
78985;SDS011;68384;55.750;48.746;2023-05-29T05:56:51;7.07;;;5.00;;
78985;SDS011;68384;55.750;48.746;2023-05-29T05:57:54;6.10;;;4.70;;
78985;SDS011;68384;55.750;48.746;2023-05-29T05:58:58;6.15;;;4.80;;
78985;SDS011;68384;55.750;48.746;2023-05-29T06:00:02;7.43;;;4.53;;
78985;SDS011;68384;55.750;48.746;2023-05-29T06:01:17;8.32;;;4.30;;
78985;SDS011;68384;55.750;48.746;2023-05-29T06:02:22;7.80;;;4.32;;
78985;SDS011;68384;55.750;48.746;2023-05-29T06:03:26;5.70;;;4.28;;
78985;SDS011;68384;55.750;48.746;2023-05-29T06:04:40;7.22;;;4.40;;
78985;SDS011;68384;55.750;48.746;2023-05-29T06:05:46;5.93;;;3.75;;
78985;SDS011;68384;55.750;48.746;2023-05-29T06:06:49;5.18;;;4.20;;
78985;SDS011;68384;55.750;48.746;2023-05-29T06:07:53;5.18;;;4.00;;
78985;SDS011;68384;55.750;48.746;2023-05-29T06:08:56;6.60;;;4.22;;
78985;SDS011;68384;55.750;48.746;2023-05-29T06:10:02;5.32;;;3.42;;
78985;SDS011;68384;55.750;48.746;2023-05-29T06:11:06;6.40;;;3.30;;
78985;SDS011;68384;55.750;48.746;2023-05-29T06:12:12;6.07;;;3.22;;
78985;SDS011;68384;55.750;48.746;2023-05-29T06:13:24;7.78;;;3.40;;
78985;SDS011;68384;55.750;48.746;2023-05-29T06:14:37;7.85;;;3.45;;
78985;SDS011;68384;55.750;48.746;2023-05-29T06:15:42;4.20;;;2.97;;
78985;SDS011;68384;55.750;48.746;2023-05-29T06:16:45;7.03;;;3.08;;
78985;SDS011;68384;55.750;48.746;2023-05-29T06:17:49;4.10;;;3.13;;
78985;SDS011;68384;55.750;48.746;2023-05-29T06:18:54;4.65;;;3.45;;
78985;SDS011;68384;55.750;48.746;2023-05-29T06:19:58;5.55;;;2.85;;
78985;SDS011;68384;55.750;48.746;2023-05-29T06:21:06;4.18;;;2.95;;
78985;SDS011;68384;55.750;48.746;2023-05-29T06:22:18;3.08;;;2.35;;
78985;SDS011;68384;55.750;48.746;2023-05-29T06:23:22;4.85;;;3.10;;
78985;SDS011;68384;55.750;48.746;2023-05-29T06:25:31;5.22;;;2.30;;
78985;SDS011;68384;55.750;48.746;2023-05-29T06:26:35;4.15;;;2.65;;
78985;SDS011;68384;55.750;48.746;2023-05-29T06:27:41;5.97;;;2.78;;
78985;SDS011;68384;55.750;48.746;2023-05-29T06:28:45;9.00;;;2.78;;
78985;SDS011;68384;55.750;48.746;2023-05-29T06:29:48;4.38;;;2.60;;
78985;SDS011;68384;55.750;48.746;2023-05-29T06:30:51;5.05;;;2.53;;
78985;SDS011;68384;55.750;48.746;2023-05-29T06:31:57;3.45;;;2.53;;